SCIESCTB

Guest
Details From SCIE - Carriel Sur Intl
To SCTB - Eulogio Sanchez
Flight Number -
Tags generated
Created
Modified
Stats Distance 239 nm / 442 km
Max Altitude 29,900 ft / 9,114 m
Waypoints 4
Social Downloads 1
Likes 0
Share VATSIM

Download

Looking for another format? Having issues loading an existing format? Contact us
Advertisement - Login to hide

Notes

Basic altitude profile: - Ascent Rate: 2500ft/min - Ascent Speed: 100kts - Cruise Altitude: 12000ft - Cruise Speed: 140kts - Descent Rate: 1500ft/min - Descent Speed: 150kts Options: - Use NATs: yes - Use PACOTS: yes - Use low airways: yes - Use high airways: yes

Route

SCIE CTN W103 TAL SCTB

ID Type Via Altitude Latitude Longitude Leg Dist Tot Dist Heading (true) Name
O SCIE APT - 0 ft / 0 m -36.77265˚ -73.06311˚ - 0 nm - Carriel Sur Intl
CTN NDB - 29,900 ft / 9,114 m -35.30556˚ -72.37944˚ 94 nm 94 nm 21° / 20° CONSTITUCION NDB
TAL NDB W103 (AWY-LO) 9,000 ft / 2,743 m -33.68306˚ -70.93278˚ 120 nm 215 nm 37° / 36° TALAGANTE NDB
O SCTB APT - 0 ft / 0 m -33.45626˚ -70.54667˚ 23 nm 238 nm 55° / 55° Eulogio Sanchez

Altitude Profile

Advertisement - Login to hide

Weather


0- 5 10 15 20 25 30 35+ Temperature / ° C

Clouds and Precipitation
Forecast for 2018-05-27 12:00 UTC. Updated 3 hours ago

Ground ~20,000 ft ~40,000 ft Winds

SCIE

Details ICAO SCIE (CCP)
Name Carriel Sur Intl
Region Chile
Timezone America/Santiago (UTC-4.0)
Stats Elevation 26 ft / 8 m (AMSL)
Location -36.772653° -73.063110°
Runways 1
Magnetic Variation 5.716° E

METAR

SCIE 271400Z 02010KT 9999 BKN009 BKN120 13/12 Q1016

Decode

TAF

TAF SCIE 271028Z 2712/2812 09004KT 8000 SCT015 BKN020 TX13/2719Z TN11/2811Z TEMPO 2712/2714 0700 FG BKN002 BECMG 2715/2717 01010KT 9999 FEW020 SCT030 BECMG 2720/2722 FEW008 BKN025 BECMG 2801/2803 01012KT 7000 SHRA FEW008 SCT010 BKN020 TEMPO 2807/2812 5000 RA SCT008 BKN012

Decode

Departure Runways

ID Width Length Bearing (true) Bearing (mag) Surface Threshold Offset Overrun Length
02 148 ft / 45 m 7,553 ft / 2,302 m 24.99° 19.27° Asphalt 0 ft / 0 m 0 ft / 0 m
20 148 ft / 45 m 7,553 ft / 2,302 m 204.98° 199.26° Asphalt 0 ft / 0 m 0 ft / 0 m

SCTB

Details ICAO SCTB
Name Eulogio Sanchez
Region Chile
Timezone America/Santiago (UTC-4.0)
Stats Elevation 2,129 ft / 649 m (AMSL)
Location -33.456264° -70.546667°
Runways 1
Magnetic Variation 1.540° E

METAR

SCTB 271400Z 12001KT CAVOK 10/01 Q1018

Decode

TAF

Not found

Destination Runways

ID Width Length Bearing (true) Bearing (mag) Surface Threshold Offset Overrun Length
01 88 ft / 27 m 3,752 ft / 1,144 m 12.76° 11.22° Asphalt 0 ft / 0 m 0 ft / 0 m
19 88 ft / 27 m 3,752 ft / 1,144 m 192.76° 191.22° Asphalt 552 ft / 168 m 0 ft / 0 m